createdAt,value
2022-12-05T00:01:48.976Z,50.00
2022-12-05T00:04:16.928Z,53.70
2022-12-05T00:06:44.749Z,54.30
2022-12-05T00:09:13.443Z,54.00
2022-12-05T00:11:44.825Z,59.50
2022-12-05T00:14:13.570Z,54.70
2022-12-05T00:16:42.640Z,52.30
2022-12-05T00:19:12.883Z,55.70
2022-12-05T00:21:40.911Z,45.80
2022-12-05T00:24:11.714Z,53.30
2022-12-05T00:26:39.450Z,52.20
2022-12-05T00:29:07.142Z,59.30
2022-12-05T00:31:35.000Z,43.50
2022-12-05T00:34:03.973Z,48.80
2022-12-05T00:36:32.653Z,52.20
2022-12-05T00:39:01.659Z,53.10
2022-12-05T00:41:29.907Z,53.00
2022-12-05T00:43:59.766Z,50.30
2022-12-05T00:46:28.993Z,57.40
2022-12-05T00:48:57.719Z,50.90
2022-12-05T00:51:30.175Z,52.00
2022-12-05T00:53:59.531Z,52.60
2022-12-05T00:56:28.485Z,54.90
2022-12-05T00:58:57.254Z,55.50
2022-12-05T01:01:27.074Z,58.40
2022-12-05T01:03:56.486Z,55.30
2022-12-05T01:06:25.180Z,57.90
2022-12-05T01:08:54.158Z,55.40
2022-12-05T01:11:23.466Z,53.70
2022-12-05T01:13:51.323Z,52.20
2022-12-05T01:16:29.753Z,52.20
2022-12-05T01:18:58.361Z,47.00
2022-12-05T01:21:26.353Z,49.30
2022-12-05T01:23:54.535Z,47.80
2022-12-05T01:26:23.403Z,45.10
2022-12-05T01:28:52.327Z,49.90
2022-12-05T01:31:27.932Z,44.20
2022-12-05T01:33:57.187Z,44.20
2022-12-05T01:36:25.907Z,48.90
2022-12-05T01:38:54.350Z,50.40
2022-12-05T01:41:24.007Z,47.40
2022-12-05T01:44:06.087Z,48.30
2022-12-05T01:46:35.465Z,52.90
2022-12-05T01:49:08.244Z,46.60
2022-12-05T01:51:37.459Z,48.30
2022-12-05T01:54:06.650Z,49.40
2022-12-05T01:56:35.914Z,47.00
2022-12-05T01:59:05.264Z,42.30
2022-12-05T02:01:33.001Z,52.50
2022-12-05T02:04:01.205Z,52.70
2022-12-05T02:06:29.756Z,44.60
2022-12-05T02:08:57.716Z,48.90
2022-12-05T02:11:27.142Z,47.30
2022-12-05T02:14:11.157Z,46.20
2022-12-05T02:16:39.460Z,47.30
2022-12-05T02:19:15.762Z,45.50
2022-12-05T02:21:43.446Z,49.90
2022-12-05T02:24:29.643Z,48.50
2022-12-05T02:26:57.393Z,48.40
2022-12-05T02:29:45.563Z,46.20
2022-12-05T02:32:19.398Z,46.20
2022-12-05T02:34:47.017Z,43.70
2022-12-05T02:37:33.692Z,46.40
2022-12-05T02:40:05.212Z,44.50
2022-12-05T02:42:38.451Z,41.60
2022-12-05T02:45:09.996Z,40.70
2022-12-05T02:47:43.724Z,42.50
2022-12-05T02:50:13.283Z,44.00
2022-12-05T02:52:42.233Z,42.70
2022-12-05T02:55:10.300Z,45.60
2022-12-05T02:57:38.885Z,40.50
2022-12-05T03:00:07.033Z,43.30
2022-12-05T03:02:35.231Z,48.20
2022-12-05T03:05:26.849Z,44.80
2022-12-05T03:07:57.280Z,43.30
2022-12-05T03:10:26.167Z,42.70
2022-12-05T03:12:56.487Z,41.90
2022-12-05T03:15:31.390Z,46.50
2022-12-05T03:18:06.634Z,39.40
2022-12-05T03:20:41.971Z,47.90
2022-12-05T03:23:14.497Z,48.70
2022-12-05T03:25:57.656Z,39.80
2022-12-05T03:28:29.892Z,42.00
2022-12-05T03:31:01.813Z,43.00
2022-12-05T03:33:35.371Z,44.80
2022-12-05T03:36:06.981Z,44.50
2022-12-05T03:38:37.694Z,40.90
2022-12-05T03:41:15.492Z,40.20
2022-12-05T03:43:55.059Z,42.30
2022-12-05T03:46:39.741Z,48.70
2022-12-05T03:49:13.111Z,41.50
2022-12-05T03:51:49.673Z,44.00
2022-12-05T03:54:20.508Z,44.40
2022-12-05T03:56:51.650Z,47.90
2022-12-05T03:59:28.547Z,43.10
2022-12-05T04:01:57.767Z,45.00
2022-12-05T04:04:32.042Z,49.50
2022-12-05T04:07:02.586Z,46.70
2022-12-05T04:09:33.506Z,47.60
2022-12-05T04:12:03.525Z,45.40
2022-12-05T04:14:35.255Z,44.40
2022-12-05T04:17:26.800Z,46.50
2022-12-05T04:20:20.671Z,45.10
2022-12-05T04:22:49.157Z,44.90
2022-12-05T04:25:35.861Z,42.70
2022-12-05T04:28:09.371Z,42.30
2022-12-05T04:30:41.262Z,43.00
2022-12-05T04:33:16.765Z,42.80
2022-12-05T04:35:54.362Z,42.40
2022-12-05T04:38:25.563Z,39.70
2022-12-05T04:40:59.804Z,37.60
2022-12-05T04:43:28.860Z,40.70
2022-12-05T04:45:58.428Z,39.10
2022-12-05T04:48:27.714Z,46.70
2022-12-05T04:50:56.299Z,40.30
2022-12-05T04:53:26.436Z,44.00
2022-12-05T04:55:55.998Z,37.20
2022-12-05T04:58:25.697Z,38.60
2022-12-05T05:01:04.042Z,38.70
2022-12-05T05:03:35.968Z,43.90
2022-12-05T05:06:04.032Z,43.50
2022-12-05T05:08:31.845Z,39.00
2022-12-05T05:11:05.942Z,41.10
2022-12-05T05:13:33.599Z,40.90
2022-12-05T05:16:01.362Z,40.40
2022-12-05T05:18:29.136Z,48.90
2022-12-05T05:20:56.816Z,44.20
2022-12-05T05:23:24.392Z,53.50
2022-12-05T05:25:53.347Z,53.40
2022-12-05T05:28:21.413Z,52.50
2022-12-05T05:30:49.522Z,47.80
2022-12-05T05:33:17.689Z,44.80
2022-12-05T05:35:45.787Z,44.10
2022-12-05T05:38:13.496Z,39.40
2022-12-05T05:40:41.667Z,43.70
2022-12-05T05:43:09.283Z,43.30
2022-12-05T05:45:37.238Z,43.10
2022-12-05T05:48:05.239Z,42.60
2022-12-05T05:50:32.924Z,46.20
2022-12-05T05:53:00.520Z,41.30
2022-12-05T05:55:28.184Z,46.40
2022-12-05T05:57:55.750Z,44.10
2022-12-05T06:00:23.604Z,46.60
2022-12-05T06:02:51.463Z,44.10
2022-12-05T06:05:19.152Z,41.00
2022-12-05T06:07:47.033Z,44.50
2022-12-05T06:10:15.148Z,42.20
2022-12-05T06:12:42.712Z,43.40
2022-12-05T06:15:10.865Z,40.30
2022-12-05T06:17:38.632Z,43.90
2022-12-05T06:20:08.054Z,41.30
2022-12-05T06:22:36.206Z,37.40
2022-12-05T06:25:04.387Z,42.80
2022-12-05T06:27:32.558Z,36.30
2022-12-05T06:30:01.308Z,43.70
2022-12-05T06:32:30.280Z,42.50
2022-12-05T06:34:58.039Z,41.10
2022-12-05T06:37:25.862Z,39.70
2022-12-05T06:39:53.821Z,38.60
2022-12-05T06:42:22.325Z,41.50
2022-12-05T06:44:50.281Z,42.80
2022-12-05T06:47:17.912Z,39.20
2022-12-05T06:49:46.104Z,37.70
2022-12-05T06:52:13.896Z,37.60
2022-12-05T06:54:41.738Z,41.30
2022-12-05T06:57:09.906Z,42.00
2022-12-05T06:59:37.668Z,44.30
2022-12-05T07:02:08.440Z,41.60
2022-12-05T07:04:36.630Z,40.50
2022-12-05T07:07:04.238Z,43.50
2022-12-05T07:09:51.556Z,39.40
2022-12-05T07:12:19.551Z,44.30
2022-12-05T07:14:49.300Z,45.10
2022-12-05T07:17:18.760Z,44.60
2022-12-05T07:19:50.700Z,44.30
2022-12-05T07:22:19.179Z,41.20
2022-12-05T07:24:46.840Z,43.30
2022-12-05T07:27:15.337Z,42.60
2022-12-05T07:29:43.228Z,42.00
2022-12-05T07:32:10.999Z,48.30
2022-12-05T07:34:39.249Z,44.00
2022-12-05T07:37:07.090Z,48.20
2022-12-05T07:39:34.978Z,42.40
2022-12-05T07:42:02.779Z,49.40
2022-12-05T07:44:30.997Z,48.50
2022-12-05T07:46:58.793Z,44.50
2022-12-05T07:49:26.698Z,49.00
2022-12-05T07:51:54.490Z,44.00
2022-12-05T07:54:22.205Z,47.90
2022-12-05T07:56:50.219Z,44.70
2022-12-05T07:59:17.945Z,46.30
2022-12-05T08:01:45.833Z,44.40
2022-12-05T08:04:15.871Z,47.00
2022-12-05T08:06:43.874Z,44.30
2022-12-05T08:09:12.267Z,44.60
2022-12-05T08:11:40.541Z,45.90
2022-12-05T08:14:09.256Z,44.70
2022-12-05T08:16:37.315Z,46.30
2022-12-05T08:19:06.667Z,44.80
2022-12-05T08:21:35.025Z,49.40
2022-12-05T08:24:06.649Z,44.00
2022-12-05T08:26:35.735Z,46.20
2022-12-05T08:29:09.375Z,48.90
2022-12-05T08:31:41.680Z,44.80
2022-12-05T08:34:11.220Z,43.30
2022-12-05T08:36:39.048Z,45.80
2022-12-05T08:39:07.673Z,43.90
2022-12-05T08:41:35.577Z,40.60
2022-12-05T08:44:05.721Z,44.70
2022-12-05T08:46:34.620Z,43.50
2022-12-05T08:49:03.134Z,56.40
2022-12-05T08:51:31.019Z,46.40
2022-12-05T08:53:59.412Z,45.90
2022-12-05T08:56:27.765Z,38.30
2022-12-05T08:59:02.998Z,43.00
2022-12-05T09:01:34.649Z,40.30
2022-12-05T09:04:04.962Z,40.80
2022-12-05T09:06:34.771Z,41.10
2022-12-05T09:09:04.859Z,46.50
2022-12-05T09:11:35.036Z,42.90
2022-12-05T09:14:03.004Z,41.20
2022-12-05T09:16:37.485Z,55.20
2022-12-05T09:19:16.490Z,64.90
2022-12-05T09:21:44.407Z,76.60
2022-12-05T09:24:12.811Z,106.50
2022-12-05T09:26:40.985Z,54.10
2022-12-05T09:29:15.865Z,53.60
2022-12-05T09:31:47.316Z,68.80
2022-12-05T09:34:16.288Z,52.30
2022-12-05T09:36:44.258Z,39.70
2022-12-05T09:39:12.584Z,44.00
2022-12-05T09:42:06.166Z,45.80
2022-12-05T09:44:46.795Z,54.60
2022-12-05T09:47:33.911Z,47.50
2022-12-05T09:50:06.340Z,43.20
2022-12-05T09:52:36.609Z,43.90
2022-12-05T09:55:22.418Z,46.80
2022-12-05T09:57:52.428Z,43.20
2022-12-05T10:00:20.601Z,43.90
2022-12-05T10:03:00.894Z,52.80
2022-12-05T10:05:40.132Z,43.50
2022-12-05T10:08:28.408Z,46.30
2022-12-05T10:11:10.637Z,48.40
2022-12-05T10:13:41.905Z,47.70
2022-12-05T10:16:13.036Z,43.40
2022-12-05T10:18:50.756Z,44.20
2022-12-05T10:21:24.030Z,43.10
2022-12-05T10:23:58.816Z,48.00
2022-12-05T10:26:36.539Z,43.30
2022-12-05T10:29:15.188Z,42.10
2022-12-05T10:31:44.958Z,52.10
2022-12-05T10:34:28.452Z,59.00
2022-12-05T10:37:00.360Z,58.20
2022-12-05T10:39:28.162Z,47.00
2022-12-05T10:41:56.959Z,52.30
2022-12-05T10:44:25.345Z,52.40
2022-12-05T10:46:53.574Z,45.90
2022-12-05T10:49:21.733Z,42.70
2022-12-05T10:51:50.015Z,47.70
2022-12-05T10:54:20.853Z,39.90
2022-12-05T10:56:50.834Z,41.40
2022-12-05T10:59:20.444Z,50.10
2022-12-05T11:01:51.716Z,46.90
2022-12-05T11:04:22.287Z,44.90
2022-12-05T11:06:51.746Z,45.70
2022-12-05T11:09:21.635Z,41.40
2022-12-05T11:12:07.988Z,47.80
2022-12-05T11:14:36.649Z,41.70
2022-12-05T11:17:05.299Z,47.90
2022-12-05T11:19:38.034Z,41.10
2022-12-05T11:22:09.587Z,39.70
2022-12-05T11:24:38.483Z,39.70
2022-12-05T11:27:15.621Z,42.40
2022-12-05T11:32:19.155Z,37.50
2022-12-05T11:34:50.319Z,41.20
2022-12-05T11:37:21.878Z,44.80
2022-12-05T11:39:49.601Z,42.30
2022-12-05T11:42:26.695Z,38.40
2022-12-05T11:47:37.262Z,35.80
2022-12-05T11:50:15.174Z,40.30
2022-12-05T11:52:52.041Z,38.50
2022-12-05T11:55:41.533Z,29.30
2022-12-05T11:58:15.990Z,39.20
2022-12-05T12:00:43.726Z,42.20
2022-12-05T12:03:33.584Z,40.30
2022-12-05T12:06:07.691Z,41.40
2022-12-05T12:08:42.722Z,39.60
2022-12-05T12:11:20.729Z,38.10
2022-12-05T12:13:48.442Z,40.00
2022-12-05T12:16:29.919Z,43.10
2022-12-05T12:19:00.759Z,41.60
2022-12-05T12:21:38.512Z,39.00
2022-12-05T12:24:06.963Z,42.90
2022-12-05T12:26:47.024Z,41.00
2022-12-05T12:29:15.151Z,40.30
2022-12-05T12:31:48.788Z,41.20
2022-12-05T12:34:35.824Z,38.40
2022-12-05T12:37:08.255Z,37.60
2022-12-05T12:39:39.445Z,40.30
2022-12-05T12:42:10.211Z,35.10
2022-12-05T12:44:40.872Z,39.00
2022-12-05T12:47:18.106Z,39.60
2022-12-05T12:49:45.983Z,38.20
2022-12-05T12:52:16.239Z,39.80
2022-12-05T12:55:05.557Z,41.40
2022-12-05T12:57:39.760Z,37.10
2022-12-05T13:00:10.705Z,36.70
2022-12-05T13:02:41.701Z,40.50
2022-12-05T13:05:21.087Z,36.80
2022-12-05T13:07:54.329Z,40.80
2022-12-05T13:10:39.681Z,39.00
2022-12-05T13:13:08.223Z,42.10
2022-12-05T13:15:41.083Z,39.40
2022-12-05T13:18:13.373Z,36.70
2022-12-05T13:20:41.751Z,37.70
2022-12-05T13:23:12.875Z,42.10
2022-12-05T13:25:41.477Z,35.50
2022-12-05T13:28:25.552Z,39.70
2022-12-05T13:31:20.833Z,41.20
2022-12-05T13:33:50.352Z,41.10
2022-12-05T13:36:38.869Z,41.60
2022-12-05T13:39:36.987Z,35.90
2022-12-05T13:42:15.683Z,39.20
2022-12-05T13:44:46.103Z,40.60
2022-12-05T13:47:29.042Z,41.70
2022-12-05T13:50:06.439Z,36.80
2022-12-05T13:52:43.071Z,45.30
2022-12-05T13:55:21.337Z,47.20
2022-12-05T13:57:51.213Z,52.80
2022-12-05T14:00:19.549Z,46.00
2022-12-05T14:02:48.879Z,47.80
2022-12-05T14:05:18.510Z,54.00
2022-12-05T14:07:50.923Z,62.40
2022-12-05T14:10:23.405Z,44.40
2022-12-05T14:12:54.314Z,41.20
2022-12-05T14:15:25.115Z,38.40
2022-12-05T14:18:14.169Z,37.90
2022-12-05T14:21:01.324Z,38.80
2022-12-05T14:23:35.373Z,35.20
2022-12-05T14:26:21.804Z,41.00
2022-12-05T14:28:49.758Z,44.30
2022-12-05T14:31:31.677Z,44.60
2022-12-05T14:34:15.199Z,38.80
2022-12-05T14:37:02.618Z,39.10
2022-12-05T14:39:33.423Z,40.60
2022-12-05T14:42:02.950Z,41.60
2022-12-05T14:44:34.521Z,42.80
2022-12-05T14:47:05.772Z,38.40
2022-12-05T14:49:37.542Z,39.90
2022-12-05T14:52:11.518Z,39.40
2022-12-05T14:54:39.696Z,37.10
2022-12-05T14:57:12.607Z,38.20
2022-12-05T14:59:45.866Z,39.00
2022-12-05T15:02:19.163Z,39.70
2022-12-05T15:04:51.324Z,37.20
2022-12-05T15:07:21.729Z,38.90
2022-12-05T15:10:08.367Z,40.20
2022-12-05T15:12:42.122Z,36.70
2022-12-05T15:15:17.437Z,37.90
2022-12-05T15:18:12.504Z,37.10
2022-12-05T15:20:59.123Z,38.50
2022-12-05T15:23:44.962Z,36.10
2022-12-05T15:26:45.983Z,41.40
2022-12-05T15:29:17.493Z,39.30
2022-12-05T15:31:47.611Z,44.50
2022-12-05T15:34:25.196Z,52.60
2022-12-05T15:36:57.065Z,48.30
2022-12-05T15:39:28.369Z,47.60
2022-12-05T15:42:17.864Z,44.50
2022-12-05T15:44:47.522Z,41.10
2022-12-05T15:47:21.809Z,37.80
2022-12-05T15:49:50.285Z,42.60
2022-12-05T15:52:24.300Z,42.80
2022-12-05T15:54:54.401Z,42.30
2022-12-05T15:57:25.963Z,37.70
2022-12-05T15:59:56.983Z,42.60
2022-12-05T16:02:34.694Z,39.20
2022-12-05T16:05:03.876Z,41.60
2022-12-05T16:07:32.336Z,38.60
2022-12-05T16:10:00.895Z,38.90
2022-12-05T16:12:39.885Z,40.70
2022-12-05T16:15:14.310Z,37.40
2022-12-05T16:17:52.848Z,37.70
2022-12-05T16:20:25.514Z,39.20
2022-12-05T16:22:55.008Z,39.20
2022-12-05T16:25:25.235Z,37.90
2022-12-05T16:27:57.767Z,38.30
2022-12-05T16:30:26.075Z,34.90
2022-12-05T16:33:08.957Z,37.30
2022-12-05T16:35:36.960Z,36.40
2022-12-05T16:38:11.486Z,35.30
2022-12-05T16:40:51.800Z,37.60
2022-12-05T16:43:23.926Z,39.90
2022-12-05T16:45:53.136Z,39.90
2022-12-05T16:48:34.031Z,39.20
2022-12-05T16:51:11.469Z,38.80
2022-12-05T16:53:41.068Z,44.10
2022-12-05T16:56:12.725Z,41.80
2022-12-05T16:58:40.796Z,41.20
2022-12-05T17:01:15.142Z,42.50
2022-12-05T17:03:43.637Z,45.50
2022-12-05T17:06:12.380Z,50.30
2022-12-05T17:08:40.756Z,48.60
2022-12-05T17:11:14.647Z,47.50
2022-12-05T17:13:42.428Z,51.50
2022-12-05T17:16:10.665Z,48.60
2022-12-05T17:18:38.875Z,48.60
2022-12-05T17:21:06.807Z,53.70
2022-12-05T17:23:34.661Z,45.90
2022-12-05T17:26:03.087Z,42.00
2022-12-05T17:28:31.515Z,45.50
2022-12-05T17:30:59.399Z,44.00
2022-12-05T17:33:27.425Z,40.90
2022-12-05T17:35:58.121Z,40.30
2022-12-05T17:38:26.511Z,42.00
2022-12-05T17:40:54.377Z,38.40
2022-12-05T17:43:25.315Z,41.10
2022-12-05T17:45:55.133Z,41.60
2022-12-05T17:48:23.301Z,40.10
2022-12-05T17:50:51.294Z,41.60
2022-12-05T17:53:21.181Z,43.00
2022-12-05T17:55:49.659Z,39.30
2022-12-05T17:58:17.832Z,41.00
2022-12-05T18:00:47.082Z,42.90
2022-12-05T18:03:18.222Z,43.50
2022-12-05T18:05:47.374Z,44.00
2022-12-05T18:08:17.105Z,43.40
2022-12-05T18:10:46.277Z,44.30
2022-12-05T18:13:15.269Z,45.70
2022-12-05T18:15:44.271Z,47.40
2022-12-05T18:18:17.040Z,48.30
2022-12-05T18:20:45.827Z,43.80
2022-12-05T18:23:13.865Z,47.00
2022-12-05T18:25:41.979Z,47.30
2022-12-05T18:28:10.455Z,46.60
2022-12-05T18:30:38.662Z,47.60
2022-12-05T18:33:06.509Z,50.80
2022-12-05T18:35:40.893Z,50.50
2022-12-05T18:38:10.753Z,52.60
2022-12-05T18:40:40.133Z,51.20
2022-12-05T18:43:08.107Z,51.20
2022-12-05T18:45:37.063Z,56.30
2022-12-05T18:48:23.182Z,54.00
2022-12-05T18:50:53.597Z,53.50
2022-12-05T18:53:22.102Z,54.50
2022-12-05T18:56:21.762Z,56.40
2022-12-05T18:58:38.645Z,56.00
2022-12-05T19:01:08.196Z,55.00
2022-12-05T19:03:36.582Z,53.80
2022-12-05T19:06:14.850Z,59.40
2022-12-05T19:08:45.301Z,59.40
2022-12-05T19:11:17.712Z,58.00
2022-12-05T19:13:47.366Z,57.10
2022-12-05T19:16:18.992Z,61.10
2022-12-05T19:18:50.399Z,57.20
2022-12-05T19:21:18.177Z,54.70
2022-12-05T19:23:46.080Z,56.40
2022-12-05T19:26:14.520Z,61.00
2022-12-05T19:28:43.089Z,56.70
2022-12-05T19:31:12.631Z,61.00
2022-12-05T19:33:42.206Z,58.10
2022-12-05T19:36:13.632Z,60.90
2022-12-05T19:38:42.975Z,57.10
2022-12-05T19:41:11.983Z,57.60
2022-12-05T19:43:41.536Z,55.20
2022-12-05T19:46:15.040Z,57.00
2022-12-05T19:48:43.119Z,57.60
2022-12-05T19:51:13.067Z,62.60
2022-12-05T19:53:42.538Z,58.10
2022-12-05T19:56:15.726Z,55.00
2022-12-05T19:58:44.310Z,58.70
2022-12-05T20:01:14.170Z,56.00
2022-12-05T20:03:43.814Z,56.70
2022-12-05T20:06:13.937Z,54.80
2022-12-05T20:08:43.731Z,53.70
2022-12-05T20:11:13.809Z,56.00
2022-12-05T20:13:47.373Z,54.70
2022-12-05T20:16:19.157Z,55.30
2022-12-05T20:18:49.337Z,55.90
2022-12-05T20:21:20.128Z,58.40
2022-12-05T20:23:50.106Z,63.40
2022-12-05T20:26:20.727Z,62.40
2022-12-05T20:28:50.574Z,61.90
2022-12-05T20:31:20.369Z,60.60
2022-12-05T20:33:54.110Z,61.00
2022-12-05T20:36:27.085Z,62.10
2022-12-05T20:38:58.598Z,63.60
2022-12-05T20:41:29.359Z,66.80
2022-12-05T20:43:59.725Z,62.00
2022-12-05T20:46:29.358Z,66.60
2022-12-05T20:48:57.913Z,64.30
2022-12-05T20:51:28.373Z,63.40
2022-12-05T20:53:57.984Z,66.10
2022-12-05T20:56:29.244Z,72.70
2022-12-05T20:58:59.467Z,93.60
2022-12-05T21:01:28.700Z,101.30
2022-12-05T21:03:57.053Z,88.00
2022-12-05T21:06:26.434Z,72.60
2022-12-05T21:08:54.792Z,80.10
2022-12-05T21:11:23.988Z,75.10
2022-12-05T21:13:52.057Z,72.00
2022-12-05T21:16:21.122Z,68.20
2022-12-05T21:18:49.659Z,66.70
2022-12-05T21:21:19.350Z,62.70
2022-12-05T21:23:52.940Z,62.00
2022-12-05T21:26:22.240Z,69.50
2022-12-05T21:28:50.844Z,72.30
2022-12-05T21:31:21.839Z,112.80
2022-12-05T21:33:51.489Z,77.50
2022-12-05T21:36:19.647Z,70.70
2022-12-05T21:38:54.008Z,71.00
2022-12-05T21:41:25.300Z,68.90
2022-12-05T21:43:55.322Z,63.10
2022-12-05T21:46:25.381Z,96.90
2022-12-05T21:48:54.504Z,101.80
2022-12-05T21:51:23.631Z,81.90
2022-12-05T21:53:51.754Z,75.10
2022-12-05T21:56:23.134Z,70.50
2022-12-05T21:58:51.748Z,69.80
2022-12-05T22:01:21.494Z,78.40
2022-12-05T22:03:59.563Z,77.00
2022-12-05T22:06:28.448Z,73.70
2022-12-05T22:08:56.201Z,67.90
2022-12-05T22:11:25.016Z,70.60
2022-12-05T22:13:53.296Z,59.10
2022-12-05T22:16:29.032Z,63.40
2022-12-05T22:19:00.563Z,65.40
2022-12-05T22:21:29.656Z,57.60
2022-12-05T22:23:58.554Z,68.50
2022-12-05T22:26:27.031Z,57.80
2022-12-05T22:28:55.918Z,60.20
2022-12-05T22:31:24.941Z,62.50
2022-12-05T22:33:53.082Z,56.30
2022-12-05T22:36:20.949Z,54.30
2022-12-05T22:38:49.241Z,57.20
2022-12-05T22:41:19.987Z,54.90
2022-12-05T22:43:48.965Z,60.20
2022-12-05T22:46:19.132Z,56.40
2022-12-05T22:48:48.778Z,56.80
2022-12-05T22:51:17.260Z,54.70
2022-12-05T22:53:45.951Z,51.00
2022-12-05T22:56:14.921Z,56.20
2022-12-05T22:58:43.411Z,56.40
2022-12-05T23:01:16.298Z,55.70
2022-12-05T23:03:45.258Z,60.40
2022-12-05T23:06:14.183Z,54.80
2022-12-05T23:08:43.373Z,55.60
2022-12-05T23:11:11.548Z,57.50
2022-12-05T23:13:40.031Z,54.70
2022-12-05T23:16:21.477Z,57.20
2022-12-05T23:18:51.516Z,54.10
2022-12-05T23:21:20.929Z,65.30
2022-12-05T23:23:49.592Z,54.40
2022-12-05T23:26:18.657Z,54.20
2022-12-05T23:28:46.368Z,59.90
2022-12-05T23:31:14.553Z,52.80
2022-12-05T23:33:42.407Z,57.70
2022-12-05T23:36:11.197Z,53.30
2022-12-05T23:38:39.921Z,54.40
2022-12-05T23:41:10.827Z,57.90
2022-12-05T23:43:38.714Z,52.90
2022-12-05T23:46:07.060Z,57.40
2022-12-05T23:48:34.755Z,50.50
2022-12-05T23:51:05.492Z,55.30
2022-12-05T23:53:34.978Z,53.50
2022-12-05T23:56:05.050Z,54.60
2022-12-05T23:58:32.840Z,55.60
